Wabowden, Canada
Current Conditions -  °F | °C
As of 2:00 AM on Friday 31 Oct 2014 (Local Time) from CYTH Reporting Station
Clear Clear  
Wind Chill:   Ceiling: Unl
Heat Index:   Visibility: 15mi
Dew Point:   Wind: 0mph
Humidity: 92%   Direction: NA
Pressure: 30.47"   Gusts: NA
Location:  54.92°N, 98.63°W
Report Text: CYTH 310700Z 00000KT 15SM SKC M13/M14 A3047 RMK SLP340
Loading
Personal Weather Stations






























Interactive Weather Map
Tropical Storm Tracking
New forecast layout! Learn more

10-Day Weather Forecast

Advertisements
Track Severe Weather on mobile